Time;durP1;ratioP1;P1;durP2;ratioP2;P2;SDS_P1;SDS_P2;PMS_P1;PMS_P2;Temp;Humidity;BMP_temperature;BMP_pressure;BME280_temperature;BME280_humidity;BME280_pressure;Samples;Min_cycle;Max_cycle;Signal;HPM_P1;HPM_P2
2022/06/14 00:01:37;;;;;;;1.83;0.52;;;22.80;46.70;21.90;101956.00;;;;5066337;28;20048;-74
2022/06/14 00:04:23;;;;;;;1.13;0.65;;;22.80;46.80;21.90;101948.00;;;;5046456;28;20075;-74
2022/06/14 00:07:09;;;;;;;2.63;0.60;;;22.70;46.70;21.90;101949.00;;;;5060236;28;20041;-74
2022/06/14 00:09:55;;;;;;;2.13;0.60;;;22.70;46.70;21.90;101944.00;;;;5056582;28;20118;-74
2022/06/14 00:12:41;;;;;;;5.60;0.70;;;22.70;46.80;21.90;101942.00;;;;5058065;28;20482;-74
2022/06/14 00:15:27;;;;;;;1.35;0.80;;;22.70;46.70;21.90;101948.00;;;;5051060;28;20043;-74
2022/06/14 00:18:14;;;;;;;1.33;0.70;;;22.70;46.80;21.90;101938.00;;;;5054504;28;20044;-74
2022/06/14 00:21:00;;;;;;;2.20;0.80;;;22.80;46.80;21.90;101941.00;;;;5064377;28;20554;-74
2022/06/14 00:23:46;;;;;;;2.80;0.65;;;22.70;46.80;21.90;101949.00;;;;5048935;28;20603;-74
2022/06/14 00:26:32;;;;;;;3.00;0.65;;;22.70;46.80;21.90;101948.00;;;;5045804;28;20394;-74
2022/06/14 00:29:18;;;;;;;3.13;0.80;;;22.70;46.80;21.90;101946.00;;;;5065436;28;20045;-74
2022/06/14 00:32:05;;;;;;;1.33;0.65;;;22.70;46.90;21.90;101950.00;;;;5061635;28;20036;-74
2022/06/14 00:34:51;;;;;;;1.05;0.55;;;22.70;46.90;21.90;101955.00;;;;5057604;28;20044;-74
2022/06/14 00:37:37;;;;;;;1.73;0.60;;;22.70;46.90;21.90;101943.00;;;;5068951;28;20135;-75
2022/06/14 00:40:28;;;;;;;2.90;0.60;;;22.70;46.80;21.90;101949.00;;;;5048155;28;20051;-75
2022/06/14 00:43:16;;;;;;;2.92;0.70;;;22.70;46.80;21.80;101951.00;;;;5048345;28;20037;-75
2022/06/14 00:46:16;;;;;;;1.45;0.50;;;22.60;46.80;21.80;101952.00;;;;5066992;28;20044;-74
2022/06/14 00:49:06;;;;;;;2.90;0.98;;;22.60;46.90;21.80;101950.00;;;;5053219;28;20040;-74
2022/06/14 00:51:58;;;;;;;2.28;0.80;;;22.60;46.90;21.80;101954.00;;;;5053209;28;20366;-74
2022/06/14 00:54:45;;;;;;;6.63;0.80;;;22.60;46.90;21.80;101959.00;;;;5049384;28;20102;-74
2022/06/14 00:57:35;;;;;;;1.60;0.50;;;22.60;46.90;21.80;101955.00;;;;5064614;28;20068;-74
2022/06/14 01:00:27;;;;;;;2.08;0.57;;;22.60;46.90;21.80;101959.00;;;;5053713;28;20044;-74
2022/06/14 01:03:24;;;;;;;1.23;0.60;;;22.60;46.90;21.80;101965.00;;;;5049085;28;20474;-74
2022/06/14 01:06:20;;;;;;;2.15;0.60;;;22.50;46.90;21.80;101956.00;;;;5026393;28;20037;-74
2022/06/14 01:09:33;;;;;;;1.83;0.68;;;22.60;46.90;21.80;101964.00;;;;5064175;28;20458;-74
2022/06/14 01:12:22;;;;;;;2.33;0.75;;;22.60;46.90;21.80;101968.00;;;;5049762;28;20068;-74
2022/06/14 01:15:09;;;;;;;1.88;0.80;;;22.60;46.90;21.70;101962.00;;;;5040406;28;20055;-74
2022/06/14 01:18:22;;;;;;;2.63;0.90;;;22.60;46.90;21.70;101963.00;;;;5065206;28;20074;-74
2022/06/14 01:21:08;;;;;;;2.70;0.70;;;22.50;46.90;21.70;101962.00;;;;5036024;28;20406;-74
2022/06/14 01:23:54;;;;;;;3.00;0.70;;;22.60;46.90;21.70;101952.00;;;;5061133;28;20068;-74
2022/06/14 01:26:40;;;;;;;3.15;0.77;;;22.60;47.00;21.70;101958.00;;;;5037815;28;20044;-74
2022/06/14 01:29:27;;;;;;;1.20;0.52;;;22.50;46.90;21.70;101955.00;;;;5049173;28;20041;-74
2022/06/14 01:32:14;;;;;;;2.40;0.85;;;22.40;46.80;21.70;101959.00;;;;5052393;28;20135;-74
2022/06/14 01:35:03;;;;;;;3.17;0.75;;;22.50;47.00;21.70;101953.00;;;;5060913;28;20047;-74
2022/06/14 01:37:51;;;;;;;2.85;1.02;;;22.50;47.00;21.70;101945.00;;;;5021490;28;20041;-74
2022/06/14 01:41:15;;;;;;;1.38;0.85;;;22.40;46.90;21.70;101953.00;;;;5038445;28;20086;-74
2022/06/14 01:44:26;;;;;;;3.15;0.60;;;22.50;47.00;21.60;101953.00;;;;5059790;28;20112;-74
2022/06/14 01:47:37;;;;;;;0.73;0.50;;;22.50;47.00;21.60;101953.00;;;;5044691;28;20366;-74
2022/06/14 01:54:10;;;;;;;2.50;0.85;;;22.40;47.00;21.60;101938.00;;;;5051678;28;20224;-74
2022/06/14 01:57:12;;;;;;;0.55;0.40;;;22.40;46.90;21.60;101936.00;;;;5043744;28;20048;-74
2022/06/14 02:00:16;;;;;;;1.98;0.85;;;22.40;47.00;21.60;101923.00;;;;5055989;28;20048;-74
2022/06/14 02:07:03;;;;;;;3.58;0.95;;;22.40;47.00;21.50;101932.00;;;;5057491;28;20444;-74
2022/06/14 02:10:05;;;;;;;1.58;0.70;;;22.40;47.00;21.60;101934.00;;;;5051827;28;20501;-74
2022/06/14 02:13:16;;;;;;;1.95;0.63;;;22.40;47.10;21.60;101941.00;;;;5052912;28;20044;-74
2022/06/14 02:16:37;;;;;;;2.63;0.60;;;22.30;47.00;21.50;101944.00;;;;5048749;28;20036;-74
2022/06/14 02:19:41;;;;;;;2.53;0.43;;;22.30;47.10;21.50;101946.00;;;;5058815;28;20498;-74
2022/06/14 02:22:42;;;;;;;4.03;0.68;;;22.30;47.10;21.50;101954.00;;;;5046869;28;20047;-74
2022/06/14 02:25:42;;;;;;;3.13;0.68;;;22.30;47.10;21.50;101940.00;;;;5046764;28;20048;-74
2022/06/14 02:28:37;;;;;;;1.98;0.63;;;22.30;47.10;21.50;101952.00;;;;5047206;28;20163;-74
2022/06/14 02:31:46;;;;;;;1.55;0.52;;;22.30;47.10;21.50;101952.00;;;;5039714;28;20037;-74
2022/06/14 02:34:45;;;;;;;1.88;0.63;;;22.30;47.10;21.50;101951.00;;;;5039609;28;20045;-74
2022/06/14 02:37:53;;;;;;;1.40;0.70;;;22.30;47.10;21.50;101942.00;;;;5035507;28;20592;-74
2022/06/14 02:40:44;;;;;;;1.58;0.65;;;22.30;47.10;21.50;101938.00;;;;5047298;28;20479;-74
2022/06/14 02:43:45;;;;;;;1.70;0.60;;;22.30;47.00;21.50;101927.00;;;;5045847;28;20147;-74
2022/06/14 02:46:40;;;;;;;2.50;0.75;;;22.30;47.00;21.50;101932.00;;;;5034370;28;20041;-74
2022/06/14 02:49:55;;;;;;;1.75;0.60;;;22.30;47.00;21.50;101930.00;;;;5049155;28;20048;-74
2022/06/14 02:52:50;;;;;;;0.88;0.40;;;22.30;47.10;21.50;101936.00;;;;5047322;28;20045;-74
2022/06/14 02:55:48;;;;;;;1.67;0.57;;;22.30;47.00;21.50;101940.00;;;;5040934;28;20048;-74
2022/06/14 02:58:50;;;;;;;1.70;0.47;;;22.30;47.10;21.50;101930.00;;;;5055829;28;20048;-74
2022/06/14 03:01:45;;;;;;;1.90;0.75;;;22.30;47.00;21.50;101948.00;;;;5037156;28;20123;-74
2022/06/14 03:04:36;;;;;;;0.90;0.50;;;22.30;47.00;21.50;101945.00;;;;5043002;28;20487;-74
2022/06/14 03:07:35;;;;;;;1.65;0.65;;;22.30;47.10;21.50;101949.00;;;;5052002;28;20406;-74
2022/06/14 03:10:21;;;;;;;0.57;0.50;;;22.20;47.10;21.50;101943.00;;;;5040406;28;20032;-74
2022/06/14 03:13:15;;;;;;;1.40;0.55;;;22.30;47.10;21.40;101942.00;;;;5050498;28;20466;-74
2022/06/14 03:16:24;;;;;;;1.08;0.60;;;22.20;47.00;21.40;101949.00;;;;5051498;28;20067;-74
2022/06/14 03:19:32;;;;;;;1.13;0.50;;;22.20;47.10;21.40;101955.00;;;;5043982;28;20120;-74
2022/06/14 03:23:01;;;;;;;3.70;1.25;;;22.20;47.00;21.40;101958.00;;;;5058506;28;20149;-74
2022/06/14 03:26:13;;;;;;;1.35;0.47;;;22.20;47.00;21.40;101964.00;;;;5051072;28;20474;-74
2022/06/14 03:29:11;;;;;;;1.05;0.50;;;22.20;47.00;21.40;101964.00;;;;5052063;28;20036;-74
2022/06/14 03:32:12;;;;;;;1.63;0.60;;;22.20;47.00;21.40;101960.00;;;;5054377;28;20067;-75
2022/06/14 03:35:11;;;;;;;2.13;0.77;;;22.20;47.10;21.40;101962.00;;;;5052907;28;20047;-74
2022/06/14 03:38:01;;;;;;;1.00;0.38;;;22.20;47.10;21.40;101959.00;;;;5027494;28;20047;-74
2022/06/14 03:40:47;;;;;;;0.98;0.50;;;22.20;47.10;21.40;101946.00;;;;5052828;28;20048;-74
2022/06/14 03:43:34;;;;;;;0.47;0.40;;;22.20;47.00;21.40;101939.00;;;;5053285;28;20044;-74
2022/06/14 03:46:20;;;;;;;1.55;0.50;;;22.20;47.10;21.40;101944.00;;;;5040312;28;20029;-74
2022/06/14 03:49:19;;;;;;;0.88;0.63;;;22.10;47.00;21.30;101946.00;;;;5063925;28;20079;-74
2022/06/14 03:53:01;;;;;;;1.27;0.35;;;22.10;47.00;21.30;101945.00;;;;5051700;28;20347;-74
2022/06/14 03:56:14;;;;;;;1.50;0.60;;;22.10;47.10;21.30;101951.00;;;;5059807;28;20051;-74
2022/06/14 03:59:52;;;;;;;1.35;0.63;;;22.10;47.00;21.30;101944.00;;;;5051107;28;20037;-74
2022/06/14 04:02:55;;;;;;;0.50;0.40;;;22.10;47.00;21.30;101940.00;;;;5066412;28;20044;-74
2022/06/14 04:06:31;;;;;;;1.17;0.45;;;22.30;47.10;21.30;101942.00;;;;5064265;28;20082;-74
2022/06/14 04:09:23;;;;;;;0.95;0.40;;;22.10;47.10;21.30;101941.00;;;;5061895;28;20449;-74
2022/06/14 04:12:39;;;;;;;1.40;0.30;;;22.10;47.00;21.30;101941.00;;;;5058076;28;20045;-74
2022/06/14 04:16:07;;;;;;;0.52;0.45;;;22.10;47.00;21.20;101943.00;;;;5062202;28;20106;-74
2022/06/14 04:19:51;;;;;;;1.55;0.50;;;22.10;47.00;21.20;101944.00;;;;5036928;28;20052;-73
2022/06/14 04:23:14;;;;;;;1.33;0.60;;;22.10;47.80;21.20;101940.00;;;;5054037;28;20609;-74
2022/06/14 04:26:21;;;;;;;1.13;0.50;;;22.10;47.10;21.20;101945.00;;;;5053509;28;20165;-74
2022/06/14 04:29:31;;;;;;;1.45;0.60;;;22.10;47.10;21.20;101936.00;;;;5044927;28;20037;-74
2022/06/14 04:32:45;;;;;;;1.23;0.40;;;22.10;47.10;21.20;101935.00;;;;5036876;28;20500;-73
2022/06/14 04:35:46;;;;;;;1.35;0.60;;;22.10;47.10;21.20;101935.00;;;;5057147;28;20075;-74
2022/06/14 04:39:04;;;;;;;2.35;0.50;;;22.00;47.10;21.20;101937.00;;;;5044331;28;20200;-74
2022/06/14 04:42:01;;;;;;;1.75;0.63;;;22.00;47.00;21.20;101941.00;;;;5051921;28;20049;-74
2022/06/14 04:45:20;;;;;;;0.60;0.47;;;22.10;47.10;21.20;101949.00;;;;5049815;28;20045;-74
2022/06/14 04:48:13;;;;;;;1.85;0.63;;;22.10;47.10;21.20;101946.00;;;;5050283;28;20380;-75
2022/06/14 04:51:05;;;;;;;1.27;0.60;;;22.10;47.10;21.20;101945.00;;;;5048422;28;20040;-74
2022/06/14 04:54:05;;;;;;;0.90;0.40;;;22.10;47.50;21.30;101952.00;;;;5051772;28;20037;-74
2022/06/14 04:57:13;;;;;;;1.35;0.57;;;22.00;47.10;21.20;101944.00;;;;5035384;28;20546;-74
2022/06/14 05:00:08;;;;;;;2.47;0.50;;;22.10;47.00;21.20;101939.00;;;;5046107;28;20044;-74
2022/06/14 05:03:10;;;;;;;0.95;0.50;;;22.10;47.10;21.20;101950.00;;;;5067230;28;20043;-74
2022/06/14 05:06:07;;;;;;;3.28;0.70;;;22.10;47.20;21.30;101951.00;;;;5044055;28;20048;-74
2022/06/14 05:09:06;;;;;;;1.42;0.50;;;22.10;47.20;21.30;101947.00;;;;5035302;28;20056;-74
2022/06/14 05:12:23;;;;;;;0.68;0.40;;;22.10;47.90;21.30;101952.00;;;;5050711;28;20037;-74
2022/06/14 05:15:45;;;;;;;0.82;0.40;;;22.10;47.20;21.30;101961.00;;;;5063419;28;20044;-74
2022/06/14 05:18:44;;;;;;;1.77;0.93;;;22.10;47.30;21.30;101962.00;;;;5063340;28;20136;-74
2022/06/14 05:21:45;;;;;;;1.05;0.65;;;22.10;47.10;21.30;101954.00;;;;5062680;28;20040;-74
2022/06/14 05:24:31;;;;;;;2.38;0.90;;;22.10;47.10;21.30;101959.00;;;;5050630;28;20542;-74
2022/06/14 05:27:50;;;;;;;1.98;0.75;;;22.10;47.20;21.30;101960.00;;;;5052687;28;20048;-74
2022/06/14 05:30:57;;;;;;;1.67;0.63;;;22.10;47.20;21.30;101964.00;;;;5061306;28;20510;-74
2022/06/14 05:33:58;;;;;;;0.82;0.50;;;22.10;47.20;21.30;101964.00;;;;5032162;28;20612;-74
2022/06/14 05:37:25;;;;;;;1.10;0.45;;;22.20;47.30;21.30;101966.00;;;;5036987;28;20040;-74
2022/06/14 05:40:19;;;;;;;0.95;0.68;;;22.10;47.20;21.30;101969.00;;;;5054920;28;20075;-74
2022/06/14 05:43:16;;;;;;;1.48;0.55;;;22.20;47.30;21.30;101967.00;;;;5060750;28;20037;-74
2022/06/14 05:46:12;;;;;;;1.02;0.68;;;22.10;47.20;21.30;101961.00;;;;5043042;28;20414;-74
2022/06/14 05:49:05;;;;;;;1.50;0.60;;;22.20;47.30;21.30;101971.00;;;;5049525;28;20184;-74
2022/06/14 05:52:04;;;;;;;0.80;0.70;;;22.20;47.30;21.30;101968.00;;;;5021897;28;20040;-74
2022/06/14 05:55:13;;;;;;;1.05;0.68;;;22.20;47.30;21.30;101975.00;;;;5051199;28;20049;-74
2022/06/14 05:58:04;;;;;;;;;;;22.20;47.30;21.30;101981.00;;;;5068660;28;20157;-74
2022/06/14 06:01:00;;;;;;;1.50;0.90;;;22.20;47.30;21.30;101974.00;;;;5045452;28;19999;-74
2022/06/14 06:04:12;;;;;;;2.05;0.73;;;22.20;47.20;21.30;101974.00;;;;5035708;28;20492;-74
2022/06/14 06:07:02;;;;;;;1.33;0.50;;;22.20;47.20;21.30;101982.00;;;;5047788;28;20419;-74
2022/06/14 06:10:09;;;;;;;1.55;0.77;;;22.20;47.20;21.30;101980.00;;;;5044221;28;20553;-74
2022/06/14 06:13:26;;;;;;;2.28;1.00;;;22.20;47.30;21.30;101986.00;;;;5040093;28;20062;-74
2022/06/14 06:16:22;;;;;;;1.20;0.80;;;22.20;47.40;21.30;101976.00;;;;5047858;28;20056;-74
2022/06/14 06:19:18;;;;;;;1.65;0.88;;;22.20;47.30;21.30;101983.00;;;;5043815;28;20138;-73
2022/06/14 06:22:13;;;;;;;2.30;0.85;;;22.20;47.30;21.30;101977.00;;;;5052907;28;20512;-74
2022/06/14 06:25:22;;;;;;;7.00;1.15;;;22.20;47.30;21.30;101985.00;;;;5061945;28;20072;-74
2022/06/14 06:28:31;;;;;;;3.00;0.70;;;22.20;47.50;21.30;101986.00;;;;5051854;28;20097;-74
2022/06/14 06:31:20;;;;;;;0.75;0.75;;;22.20;47.50;21.30;101991.00;;;;5054493;28;20099;-74
2022/06/14 06:34:10;;;;;;;1.95;0.52;;;22.20;47.40;21.40;101997.00;;;;5044215;28;20041;-74
2022/06/14 06:37:16;;;;;;;1.40;0.60;;;22.20;47.50;21.40;101988.00;;;;5043950;28;20044;-73
2022/06/14 06:40:13;;;;;;;2.92;0.63;;;22.20;47.40;21.30;101993.00;;;;5034783;28;20594;-74
2022/06/14 06:43:05;;;;;;;2.72;0.90;;;22.20;47.40;21.40;101998.00;;;;5048607;28;20040;-74
2022/06/14 06:45:51;;;;;;;1.55;0.82;;;22.20;47.40;21.40;102008.00;;;;5039041;28;20066;-74
2022/06/14 06:48:41;;;;;;;2.13;0.80;;;22.30;47.40;21.40;102008.00;;;;5051290;28;20040;-74
2022/06/14 06:51:36;;;;;;;2.53;0.77;;;22.30;47.50;21.40;102004.00;;;;5037513;28;20040;-74
2022/06/14 06:54:34;;;;;;;1.90;0.73;;;22.30;47.40;21.40;102008.00;;;;5041483;28;20044;-74
2022/06/14 06:57:21;;;;;;;2.22;0.90;;;22.30;47.50;21.40;102011.00;;;;5060378;28;20044;-74
2022/06/14 07:00:10;;;;;;;2.07;0.87;;;22.30;47.40;21.40;102008.00;;;;5057579;28;20036;-74
2022/06/14 07:03:04;;;;;;;1.63;0.90;;;22.30;47.40;21.40;102001.00;;;;5051348;28;20044;-74
2022/06/14 07:05:52;;;;;;;1.55;0.90;;;22.30;47.40;21.40;102007.00;;;;5053002;28;20036;-74
2022/06/14 07:08:52;;;;;;;1.65;0.80;;;22.30;47.40;21.40;102007.00;;;;5053851;28;20126;-74
2022/06/14 07:12:04;;;;;;;1.92;0.70;;;22.30;47.30;21.40;102006.00;;;;5046601;28;20048;-74
2022/06/14 07:15:01;;;;;;;2.97;1.05;;;22.30;47.30;21.40;102007.00;;;;5058840;28;20068;-74
2022/06/14 07:18:08;;;;;;;1.50;0.60;;;22.30;47.30;21.40;102001.00;;;;5057543;28;20094;-74
2022/06/14 07:21:07;;;;;;;4.80;0.95;;;22.30;47.30;21.40;102008.00;;;;5071095;28;20052;-74
2022/06/14 07:23:57;;;;;;;3.42;0.88;;;22.30;47.30;21.40;102003.00;;;;5051962;28;20529;-74
2022/06/14 07:26:48;;;;;;;2.00;0.68;;;22.40;47.40;21.40;102002.00;;;;5052310;28;20045;-74
2022/06/14 07:29:40;;;;;;;4.30;1.15;;;22.30;47.40;21.40;102003.00;;;;5056754;28;20131;-74
2022/06/14 07:32:31;;;;;;;4.60;0.80;;;22.40;47.30;21.40;102004.00;;;;5057410;28;20040;-74
2022/06/14 07:35:26;;;;;;;2.47;0.65;;;22.40;47.20;21.40;102002.00;;;;5051825;28;20560;-74
2022/06/14 07:38:46;;;;;;;3.00;0.93;;;22.40;47.20;21.40;102003.00;;;;5056581;28;20080;-74
2022/06/14 07:41:43;;;;;;;2.33;0.82;;;22.40;47.00;21.40;102004.00;;;;5058135;28;20044;-74
2022/06/14 07:44:48;;;;;;;3.78;1.17;;;22.40;47.10;21.40;102000.00;;;;5060317;28;20043;-74
2022/06/14 07:47:40;;;;;;;2.00;1.05;;;22.40;47.30;21.40;102004.00;;;;5038534;28;20062;-74
2022/06/14 07:50:37;;;;;;;2.42;0.75;;;22.30;47.20;21.40;102006.00;;;;5050325;28;20085;-74
2022/06/14 07:53:57;;;;;;;3.15;1.10;;;22.40;47.10;21.40;102007.00;;;;5058196;28;20493;-74
2022/06/14 07:57:07;;;;;;;3.63;0.90;;;22.30;47.00;21.40;102004.00;;;;5057000;28;20090;-74
2022/06/14 08:04:03;;;;;;;2.25;0.70;;;22.40;47.20;21.40;102007.00;;;;5042835;28;20509;-74
2022/06/14 08:07:07;;;;;;;3.47;0.68;;;22.40;47.30;21.40;101995.00;;;;5066383;28;20036;-74
2022/06/14 08:09:57;;;;;;;2.50;0.68;;;22.40;47.20;21.40;101994.00;;;;5064019;28;20425;-73
2022/06/14 08:12:46;;;;;;;2.90;0.88;;;22.40;47.20;21.40;101994.00;;;;5066274;28;20158;-73
2022/06/14 08:15:39;;;;;;;3.92;0.70;;;22.40;47.20;21.40;101998.00;;;;5065836;28;20064;-74
2022/06/14 08:19:09;;;;;;;3.85;1.08;;;22.40;47.30;21.40;101992.00;;;;5039964;28;20052;-74
2022/06/14 08:21:57;;;;;;;1.75;0.65;;;22.40;47.10;21.40;101987.00;;;;5058343;28;20048;-74
2022/06/14 08:24:48;;;;;;;2.15;0.70;;;22.40;47.20;21.40;101993.00;;;;5055521;28;20497;-74
2022/06/14 08:27:39;;;;;;;2.60;0.90;;;22.40;47.20;21.40;101994.00;;;;5053091;28;20091;-73
2022/06/14 08:30:30;;;;;;;2.88;1.15;;;22.40;47.10;21.40;101990.00;;;;5052743;28;20043;-74
2022/06/14 08:33:34;;;;;;;2.03;0.60;;;22.40;47.10;21.50;101990.00;;;;5043265;28;20048;-74
2022/06/14 08:36:24;;;;;;;2.92;0.80;;;22.40;47.10;21.50;101991.00;;;;5053780;28;20048;-74
2022/06/14 08:39:15;;;;;;;2.83;1.30;;;22.40;47.10;21.50;101993.00;;;;5051830;28;20064;-74
2022/06/14 08:42:31;;;;;;;1.95;0.98;;;22.40;47.10;21.50;101990.00;;;;5052596;28;20033;-74
2022/06/14 08:45:39;;;;;;;2.45;0.88;;;22.40;47.00;21.50;101977.00;;;;5054973;28;20383;-74
2022/06/14 08:48:34;;;;;;;2.40;0.63;;;22.40;46.90;21.50;101984.00;;;;5051387;28;20121;-74
2022/06/14 08:51:33;;;;;;;2.90;0.90;;;22.40;47.00;21.50;101988.00;;;;5051445;28;20398;-74
2022/06/14 08:55:00;;;;;;;3.58;1.02;;;22.40;46.80;21.50;101988.00;;;;5063057;28;20504;-74
2022/06/14 08:58:28;;;;;;;2.03;0.70;;;22.40;46.90;21.50;101988.00;;;;5066577;28;20126;-74
2022/06/14 09:01:54;;;;;;;2.50;1.02;;;22.50;46.90;21.50;101990.00;;;;5061654;28;20044;-74
2022/06/14 09:05:01;;;;;;;4.07;0.73;;;22.40;46.80;21.40;101988.00;;;;5047470;28;20045;-74
2022/06/14 09:08:25;;;;;;;1.95;0.88;;;22.40;46.80;21.50;101995.00;;;;5066075;28;20131;-74
2022/06/14 09:11:23;;;;;;;1.90;0.60;;;22.50;46.90;21.40;101983.00;;;;5061839;28;20052;-74
2022/06/14 09:14:37;;;;;;;;;;;22.50;46.90;21.40;101984.00;;;;5059651;28;20045;-74
2022/06/14 09:17:38;;;;;;;2.42;0.80;;;22.50;46.90;21.40;101971.00;;;;5066412;28;19916;-74
2022/06/14 09:20:53;;;;;;;2.15;0.77;;;22.50;46.70;21.40;101985.00;;;;5060524;28;20058;-74
2022/06/14 09:23:48;;;;;;;2.90;0.73;;;22.50;46.60;21.50;101977.00;;;;5061033;28;20418;-74
2022/06/14 09:26:45;;;;;;;5.90;0.80;;;22.50;46.70;21.50;101986.00;;;;5060067;28;20450;-75
2022/06/14 09:30:16;;;;;;;2.53;0.77;;;22.50;46.60;21.50;101983.00;;;;5058578;28;20063;-74
2022/06/14 09:33:55;;;;;;;3.22;0.82;;;22.50;46.60;21.50;101975.00;;;;5060873;28;20079;-74
2022/06/14 09:37:09;;;;;;;2.55;1.00;;;22.50;46.60;21.40;101987.00;;;;5065203;28;20074;-74
2022/06/14 09:40:26;;;;;;;4.80;0.80;;;22.50;46.80;21.50;101982.00;;;;5050905;28;20115;-73
2022/06/14 09:43:43;;;;;;;3.92;1.00;;;22.50;46.60;21.50;101990.00;;;;5067502;28;20075;-73
2022/06/14 09:46:57;;;;;;;3.05;0.85;;;22.50;46.60;21.50;101979.00;;;;5059713;28;20048;-73
2022/06/14 09:50:08;;;;;;;1.65;0.52;;;22.50;46.70;21.50;101982.00;;;;5048536;28;20047;-74
2022/06/14 09:53:40;;;;;;;2.58;0.65;;;22.50;46.60;21.50;101982.00;;;;5066957;28;20037;-75
2022/06/14 09:57:04;;;;;;;2.30;1.20;;;22.50;46.60;21.50;101978.00;;;;5054213;28;20115;-75
2022/06/14 10:00:13;;;;;;;3.17;0.70;;;22.50;46.50;21.50;101980.00;;;;5060151;28;20460;-75
2022/06/14 10:03:47;;;;;;;3.70;0.63;;;22.50;46.50;21.50;101978.00;;;;5049759;28;20072;-75
2022/06/14 10:06:59;;;;;;;3.05;0.75;;;22.50;46.50;21.50;101985.00;;;;5031813;28;20523;-75
2022/06/14 10:10:13;;;;;;;2.10;0.52;;;22.50;46.50;21.50;101982.00;;;;5051717;28;20043;-75
2022/06/14 10:13:05;;;;;;;4.18;0.77;;;22.50;46.40;21.50;101985.00;;;;5066314;28;20499;-75
2022/06/14 10:16:11;;;;;;;2.58;0.70;;;22.50;46.40;21.50;101979.00;;;;5055012;28;20051;-75
2022/06/14 10:19:27;;;;;;;3.58;0.77;;;22.50;46.40;21.50;101979.00;;;;5058203;28;20044;-75
2022/06/14 10:22:19;;;;;;;1.63;0.65;;;22.50;46.40;21.50;101979.00;;;;5050852;28;20525;-75
2022/06/14 10:25:24;;;;;;;4.07;0.80;;;22.60;46.30;21.50;101988.00;;;;5044762;28;20043;-76
2022/06/14 10:28:25;;;;;;;3.15;0.75;;;22.60;46.20;21.50;101977.00;;;;5056303;28;20032;-75
2022/06/14 10:31:57;;;;;;;2.40;0.70;;;22.60;46.30;21.50;101978.00;;;;5049353;28;20060;-75
2022/06/14 10:35:00;;;;;;;1.70;0.77;;;22.60;46.10;21.50;101965.00;;;;5046839;28;20469;-72
2022/06/14 10:38:21;;;;;;;4.15;0.80;;;22.60;46.00;21.50;101972.00;;;;5037942;28;20095;-72
2022/06/14 10:41:39;;;;;;;2.05;0.60;;;22.60;46.10;21.50;101967.00;;;;5055533;28;20065;-72
2022/06/14 10:44:43;;;;;;;3.17;0.70;;;22.60;45.90;21.50;101968.00;;;;5058138;28;20087;-72
2022/06/14 10:48:11;;;;;;;2.10;0.65;;;22.60;45.90;21.50;101962.00;;;;5045189;28;20060;-72
2022/06/14 10:51:35;;;;;;;3.72;0.70;;;22.60;45.90;21.50;101954.00;;;;5044156;28;20037;-72
2022/06/14 10:54:56;;;;;;;2.40;1.02;;;22.60;45.80;21.50;101957.00;;;;5057793;28;20033;-72
2022/06/14 10:58:12;;;;;;;1.60;0.70;;;22.60;45.80;21.50;101945.00;;;;5058456;28;20037;-73
2022/06/14 11:01:06;;;;;;;2.65;0.90;;;22.60;45.90;21.50;101942.00;;;;5059656;28;20044;-72
2022/06/14 11:04:19;;;;;;;2.08;0.63;;;22.60;45.90;21.60;101947.00;;;;5042041;28;20033;-72
2022/06/14 11:07:49;;;;;;;3.08;0.80;;;22.60;45.90;21.50;101937.00;;;;5047717;28;20413;-72
2022/06/14 11:11:10;;;;;;;1.75;0.70;;;22.60;45.90;21.50;101942.00;;;;5055340;28;20265;-72
2022/06/14 11:14:12;;;;;;;2.90;0.70;;;22.60;46.00;21.50;101943.00;;;;5044918;28;20091;-72
2022/06/14 11:17:07;;;;;;;2.97;0.88;;;22.70;46.00;21.60;101930.00;;;;5043937;28;20052;-72
2022/06/14 11:20:15;;;;;;;4.25;0.80;;;22.60;45.90;21.60;101927.00;;;;5054721;28;20060;-72
2022/06/14 11:23:14;;;;;;;5.80;0.65;;;22.60;45.90;21.60;101926.00;;;;5057669;28;20047;-73
2022/06/14 11:26:29;;;;;;;2.70;0.60;;;22.60;45.90;21.60;101924.00;;;;5050779;28;20041;-72
2022/06/14 11:30:23;;;;;;;2.42;0.63;;;22.70;46.00;21.60;101917.00;;;;5050330;28;20406;-72
2022/06/14 11:33:47;;;;;;;2.08;0.50;;;22.70;45.90;21.60;101907.00;;;;4977479;28;20050;-72
2022/06/14 11:36:58;;;;;;;0.85;0.45;;;22.70;45.90;21.60;101913.00;;;;4966639;28;20057;-72
2022/06/14 11:39:52;;;;;;;2.05;0.93;;;22.70;45.90;21.60;101895.00;;;;5041820;28;20048;-72
2022/06/14 11:42:54;;;;;;;1.80;0.77;;;22.70;46.00;21.60;101902.00;;;;5036027;28;20040;-72
2022/06/14 11:45:59;;;;;;;2.15;0.70;;;22.70;45.90;21.60;101902.00;;;;5066635;28;20370;-72
2022/06/14 11:49:02;;;;;;;2.58;0.80;;;22.70;46.00;21.60;101907.00;;;;5053070;28;20200;-72
2022/06/14 11:52:09;;;;;;;4.18;0.90;;;22.70;45.90;21.60;101901.00;;;;5051455;28;20040;-72
2022/06/14 11:55:33;;;;;;;2.78;0.70;;;22.70;45.80;21.60;101891.00;;;;5063211;28;20134;-72
2022/06/14 11:58:50;;;;;;;3.22;0.70;;;22.70;45.90;21.60;101893.00;;;;4989627;28;20587;-72
2022/06/14 12:02:31;;;;;;;2.85;0.52;;;22.70;45.80;21.60;101900.00;;;;5062836;28;20093;-72
2022/06/14 12:05:38;;;;;;;1.67;0.70;;;22.70;45.80;21.60;101891.00;;;;5057343;28;20045;-73
2022/06/14 12:09:07;;;;;;;3.00;0.80;;;22.70;45.80;21.60;101892.00;;;;5059851;28;20045;-72
2022/06/14 12:12:25;;;;;;;5.00;0.82;;;22.70;45.80;21.60;101891.00;;;;5062620;28;20048;-72
2022/06/14 12:15:14;;;;;;;1.30;0.57;;;22.70;45.80;21.60;101891.00;;;;5048851;28;20094;-72
2022/06/14 12:18:01;;;;;;;1.80;0.60;;;22.80;45.80;21.60;101881.00;;;;5038189;28;20052;-72
2022/06/14 12:21:03;;;;;;;2.47;0.80;;;22.70;45.80;21.60;101890.00;;;;5064378;28;20048;-72
2022/06/14 12:23:53;;;;;;;1.67;0.60;;;22.80;45.80;21.70;101882.00;;;;5053143;28;20041;-72
2022/06/14 12:26:58;;;;;;;3.33;0.98;;;22.80;45.80;21.70;101877.00;;;;5052989;28;20043;-72
2022/06/14 12:29:44;;;;;;;3.05;1.38;;;22.80;45.80;21.70;101860.00;;;;5054505;28;20204;-72
2022/06/14 12:32:40;;;;;;;2.88;0.80;;;22.80;45.70;21.70;101872.00;;;;5061850;28;20052;-72
2022/06/14 12:35:29;;;;;;;3.20;0.70;;;22.80;45.50;21.70;101864.00;;;;5041655;28;20159;-72
2022/06/14 12:38:21;;;;;;;2.47;0.65;;;22.80;45.50;21.70;101862.00;;;;5043992;28;20391;-73
2022/06/14 12:41:33;;;;;;;1.92;1.00;;;22.80;45.40;21.70;101860.00;;;;5039464;28;20055;-73
2022/06/14 12:44:50;;;;;;;3.10;0.88;;;22.80;45.40;21.70;101859.00;;;;5044208;28;20376;-72
2022/06/14 12:48:19;;;;;;;3.40;0.85;;;22.80;45.40;21.70;101845.00;;;;5063867;28;20064;-72
2022/06/14 12:51:16;;;;;;;1.20;0.60;;;22.80;45.40;21.70;101838.00;;;;5059249;28;20048;-72
2022/06/14 12:54:29;;;;;;;2.67;1.27;;;22.80;45.40;21.70;101845.00;;;;5068273;28;20047;-72
2022/06/14 12:57:29;;;;;;;1.08;0.50;;;22.80;45.40;21.70;101843.00;;;;5055877;28;20048;-72
2022/06/14 13:00:23;;;;;;;2.40;0.80;;;22.80;45.40;21.70;101842.00;;;;5059976;28;20072;-72
2022/06/14 13:03:44;;;;;;;4.65;0.80;;;22.80;45.40;21.70;101835.00;;;;5052938;28;20044;-72
2022/06/14 13:06:57;;;;;;;1.17;0.50;;;22.80;45.30;21.70;101825.00;;;;5063744;28;20082;-72
2022/06/14 13:10:30;;;;;;;3.80;0.93;;;22.80;45.30;21.70;101825.00;;;;5043742;28;20051;-72
2022/06/14 13:13:47;;;;;;;3.35;0.75;;;22.80;45.30;21.70;101828.00;;;;5065454;28;20586;-72
2022/06/14 13:16:48;;;;;;;2.80;1.00;;;22.80;45.30;21.70;101824.00;;;;5049196;28;20072;-72
2022/06/14 13:19:55;;;;;;;2.38;0.77;;;22.80;45.40;21.70;101825.00;;;;5064717;28;20048;-72
2022/06/14 13:23:15;;;;;;;4.10;0.82;;;22.90;45.30;21.70;101817.00;;;;5047338;28;20085;-72
2022/06/14 13:26:10;;;;;;;2.75;0.63;;;22.80;45.20;21.70;101814.00;;;;5065326;28;20478;-72
2022/06/14 13:29:27;;;;;;;2.95;0.85;;;22.90;45.20;21.70;101811.00;;;;5063443;28;20047;-72
2022/06/14 13:32:49;;;;;;;4.43;1.08;;;22.80;45.20;21.70;101813.00;;;;5066046;28;20036;-72
2022/06/14 13:36:06;;;;;;;2.90;0.70;;;22.90;45.30;21.70;101804.00;;;;5059921;28;20077;-72
2022/06/14 13:39:02;;;;;;;1.60;0.65;;;22.90;45.20;21.70;101799.00;;;;5055339;28;20040;-72